This is the latest recevied weather packets stored in our database for station/object K7DC. If no packets are shown the sender has not sent any weather packets the latest 10 day(s).
| Time | Temp. | Humidity | Pressure | Rain* | Wind** | Luminosity | Snow |
|---|---|---|---|---|---|---|---|
| 1777958554 | 14.44° C | 86% | 1015 hPa | 0 mm | - | 0 W/m² | - |
| 1777958251 | 14.44° C | 86% | 1015.2 hPa | 0 mm | - | 0 W/m² | - |
| 1777957949 | 14.44° C | 86% | 1015.4 hPa | 0 mm | - | 0 W/m² | - |
| 1777957646 | 14.44° C | 86% | 1015.6 hPa | 0 mm | - | 0 W/m² | - |
| 1777957345 | 14.44° C | 86% | 1015.6 hPa | 1.78 mm | - | 0 W/m² | - |
| 1777957040 | 14.44° C | 86% | 1015.7 hPa | 1.78 mm | - | 0 W/m² | - |
| 1777956738 | 15° C | 86% | 1015.5 hPa | 0 mm | - | 0 W/m² | - |
| 1777956434 | 15° C | 85% | 1015.3 hPa | 0 mm | - | 0 W/m² | - |
| 1777956131 | 15° C | 84% | 1015.2 hPa | 0 mm | - | 0 W/m² | - |
| 1777955828 | 15° C | 84% | 1015.2 hPa | 0 mm | - | 0 W/m² | - |
| 1777955524 | 15° C | 82% | 1015.3 hPa | 0 mm | - | 0 W/m² | - |
| 1777955220 | 15° C | 83% | 1015.1 hPa | 0 mm | - | 0 W/m² | - |
| 1777954918 | 15° C | 82% | 1015.1 hPa | 0 mm | - | 0 W/m² | - |
| 1777954614 | 15° C | 80% | 1015 hPa | 0 mm | - | 0 W/m² | - |
| 1777954312 | 15.56° C | 79% | 1014.7 hPa | 0 mm | - | 0 W/m² | - |
| 1777954009 | 15.56° C | 77% | 1014.6 hPa | 0 mm | - | 0 W/m² | - |
| 1777953402 | 15.56° C | 73% | 1015.1 hPa | 0 mm | - | 0 W/m² | - |
| 1777943708 | 21.11° C | 32% | 1013.7 hPa | 0 mm | - | 5 W/m² | - |
| 1777943101 | 21.11° C | 33% | 1013.1 hPa | 0 mm | - | 7 W/m² | - |
| 1777942797 | 21.11° C | 35% | 1012.9 hPa | 0 mm | - | 11 W/m² | - |
| 1777940373 | 21.67° C | 38% | 1013.7 hPa | 0 mm | - | 60 W/m² | - |
| 1777940070 | 21.67° C | 36% | 1013.7 hPa | 0 mm | - | 44 W/m² | - |
| 1777939767 | 22.22° C | 33% | 1013.5 hPa | 0 mm | - | 38 W/m² | - |
| 1777939162 | 22.78° C | 30% | 1013.2 hPa | 0 mm | - | 61 W/m² | - |
| 1777934312 | 27.22° C | 16% | 1012.7 hPa | 0 mm | - | 130 W/m² | - |
* Rain latest hour (hover to see other rain measurements)
** Current wind speed in m/s (hover to see current wind gust speed)